D/T METAR WX W/DIR W/SPE G/SPE TEMP DEWP
9/12/19 11:56 EGUL 091156Z AUTO 31017G30KT 9999 FEW036 07/01 A2980 RMK AO2 PK WND 09037/10 PRESRR SLP095 60000 T00730005 10074 20062 52072 $ NW (310°) 19.6mph 34.5mph 7.3°C 0.5°C
9/12/19 10:56 EGUL 091056Z AUTO 32015G29KT 9999 FEW039 07/01 A2973 RMK AO2 PK WND 32032/35 PRESRR SLP071 T00730005 $ NW (320°) 17.3mph 33.4mph 7.3°C 0.5°C
9/12/19 09:56 EGUL 090956Z AUTO 31019G28KT 9999 BKN039 07/01 A2966 RMK AO2 PK WND 32030/10 PRESRR SLP048 T00710010 $ NW (310°) 21.9mph 32.2mph 7.1°C 1°C
9/12/19 08:56 EGUL 090856Z AUTO 31017G28KT 9999 BKN038 07/02 A2959 RMK AO2 PK WND 32028/51 PRESRR SLP024 60000 T00710020 52076 $ NW (310°) 19.6mph 32.2mph 7.1°C 2°C
9/12/19 07:56 EGUL 090756Z AUTO 31015G22KT 9999 BKN036 07/03 A2951 RMK AO2 DZB37E44 SLP997 P0000 T00720025 $ NW (310°) 17.3mph 25.3mph 7.2°C 2.5°C
9/12/19 07:44 EGUL 090744Z AUTO 31012G20KT 9999 SCT037 SCT050 07/03 A2950 RMK AO2 DZB37E44 SLP993 $ NW (310°) 13.8mph 23.0mph 7°C 3°C
9/12/19 06:56 EGUL 090656Z AUTO 30015KT 9999 FEW029 SCT036 SCT045 07/04 A2944 RMK AO2 RAB24E35DZB35E36 PRESRR SLP973 P0000 T00670037 $ WNW (300°) 17.3mph 6.7°C 3.7°C
9/12/19 06:36 EGUL 090636Z AUTO 29010KT 9999 FEW021 SCT026 SCT031 BKN046 06/04 A2941 RMK AO2 RAB24E35DZB35E36 SLP963 $ WNW (290°) 11.5mph 6°C 4°C
9/12/19 05:56 EGUL 090556Z AUTO 28011KT 9999 BKN025 BKN045 06/04 A2936 RMK AO2 DZB41E50 CIG 025V045 SLP946 P0000 60000 T00630036 10064 20048 52044 $ W (280°) 12.7mph 6.3°C 3.6°C
9/12/19 05:50 EGUL 090550Z AUTO 28013KT 9999 BKN026 BKN033 BKN044 06/04 A2936 RMK AO2 DZB41E50 SLP946 $ W (280°) 15.0mph 6°C 4°C
9/12/19 04:56 EGUL 090456Z AUTO 27012KT 9999 SCT041 06/03 A2930 RMK AO2 SLP926 T00600033 $ W (270°) 13.8mph 6°C 3.3°C
9/12/19 03:56 EGUL 090356Z AUTO 26011KT 9999 BKN055 06/03 A2926 RMK AO2 SLP912 T00570030 $ W (260°) 12.7mph 5.7°C 3°C
9/12/19 02:56 EGUL 090256Z AUTO 25014KT 9999 BKN049 06/03 A2923 RMK AO2 SLP902 T00560033 53007 $ WSW (250°) 16.1mph 5.6°C 3.3°C
9/12/19 01:56 EGUL 090156Z AUTO 24011KT 9999 BKN037 05/03 A2921 RMK AO2 SLP895 T00520027 $ WSW (240°) 12.7mph 5.2°C 2.7°C
9/12/19 00:56 EGUL 090056Z AUTO 23013KT 9999 CLR 05/02 A2920 RMK AO2 SLP892 T00520020 $ SW (230°) 15.0mph 5.2°C 2°C
8/12/19 23:56 EGUL 082356Z AUTO 23017G23KT 9999 CLR 06/02 A2921 RMK AO2 SLP895 T00550018 10065 20055 401180055 57024 $ SW (230°) 19.6mph 26.5mph 5.5°C 1.8°C
8/12/19 22:56 EGUL 082256Z AUTO 21017G22KT 9999 CLR 06/02 A2923 RMK AO2 SLP902 T00580017 $ SSW (210°) 19.6mph 25.3mph 5.8°C 1.7°C
8/12/19 21:56 EGUL 082156Z AUTO 23017G25KT 9999 CLR 06/02 A2927 RMK AO2 PK WND 23028/44 SLP915 T00620021 $ SW (230°) 19.6mph 28.8mph 6.2°C 2.1°C
8/12/19 20:56 EGUL 082056Z AUTO 23018G26KT 9999 CLR 06/02 A2928 RMK AO2 PK WND 22027/40 SLP919 T00630024 57022 $ SW (230°) 20.7mph 29.9mph 6.3°C 2.4°C
8/12/19 19:56 EGUL 081956Z AUTO 23019G25KT 9999 CLR 06/02 A2931 RMK AO2 PK WND 23029/01 SLP929 T00610024 $ SW (230°) 21.9mph 28.8mph 6.1°C 2.4°C
8/12/19 18:56 EGUL 081856Z AUTO 24018G26KT 9999 CLR 06/02 A2933 RMK AO2 PK WND 22027/28 SLP936 T00630022 $ WSW (240°) 20.7mph 29.9mph 6.3°C 2.2°C
8/12/19 17:56 EGUL 081756Z AUTO 23015KT 9999 CLR 06/03 A2935 RMK AO2 SLP942 60000 T00640027 10105 20064 55009 $ SW (230°) 17.3mph 6.4°C 2.7°C
8/12/19 16:56 EGUL 081656Z AUTO 24019KT 9999 FEW019 FEW041 07/03 A2936 RMK AO2 PK WND 24027/01 RAB31E44 SLP946 P0000 T00690028 $ WSW (240°) 21.9mph 6.9°C 2.8°C
8/12/19 16:44 EGUL 081644Z AUTO 24019G26KT 9999 FEW019 FEW041 07/03 A2936 RMK AO2 RAB31E44 SLP946 $ WSW (240°) 21.9mph 29.9mph 7°C 3°C
8/12/19 15:56 EGUL 081556Z AUTO 23021G25KT 9999 CLR 08/03 A2936 RMK AO2 PK WND 24030/26 SLP946 T00830031 $ SW (230°) 24.2mph 28.8mph 8.3°C 3.1°C
8/12/19 14:56 EGUL 081456Z AUTO 24015G24KT 9999 CLR 09/03 A2938 RMK AO2 PK WND 24031/08 SLP953 T00900030 57016 $ WSW (240°) 17.3mph 27.6mph 9°C 3°C
8/12/19 13:56 EGUL 081356Z AUTO 24020G28KT 9999 FEW049 10/04 A2939 RMK AO2 PK WND 25030/02 SLP956 T01000039 $ WSW (240°) 23.0mph 32.2mph 10°C 3.9°C
8/12/19 12:56 EGUL 081256Z AUTO 24023G33KT 9999 FEW039 10/04 A2941 RMK AO2 PK WND 25033/10 SLP963 T01020039 $ WSW (240°) 26.5mph 38.0mph 10.2°C 3.9°C
8/12/19 11:56 EGUL 081156Z AUTO 24024G30KT 9999 CLR 10/04 A2943 RMK AO2 PK WND 26030/48 SLP969 60001 70010 T01030044 10118 20090 58008 $ WSW (240°) 27.6mph 34.5mph 10.3°C 4.4°C
8/12/19 10:56 EGUL 081056Z AUTO 23013KT 9999 CLR 10/05 A2945 RMK AO2 PK WND 25027/00 SLP976 T01000048 $ SW (230°) 15.0mph 10°C 4.8°C
8/12/19 09:56 EGUL 080956Z AUTO 25016KT 9999 BKN045 10/05 A2946 RMK AO2 PK WND 26026/41 SLP980 T00970047 $ WSW (250°) 18.4mph 9.7°C 4.7°C
8/12/19 08:56 EGUL 080856Z AUTO 26016G23KT 9999 FEW055 09/04 A2945 RMK AO2 SLP976 60001 T00920044 52027 $ W (260°) 18.4mph 26.5mph 9.2°C 4.4°C
8/12/19 05:26 EGUL 080526Z AUTO 22021G28KT 9999 SCT014 BKN028 12/09 A2937 RMK AO2 CIG 014V028 SLP949 $ SW (220°) 24.2mph 32.2mph 12°C 9°C
8/12/19 04:56 EGUL 080456Z AUTO 22022G28KT 9999 OVC014 12/09 A2938 RMK AO2 PK WND 22029/23 SLP953 T01150094 $ SW (220°) 25.3mph 32.2mph 11.5°C 9.4°C
8/12/19 04:31 EGUL 080431Z AUTO 22021G29KT 9999 OVC014 11/09 A2939 RMK AO2 SLP956 $ SW (220°) 24.2mph 33.4mph 11°C 9°C
8/12/19 03:56 EGUL 080356Z AUTO 21024G33KT 9999 OVC016 11/09 A2940 RMK AO2 PK WND 22033/47 RAB00E18 SLP959 P0000 T01100087 $ SSW (210°) 27.6mph 38.0mph 11°C 8.7°C
8/12/19 03:18 EGUL 080318Z AUTO 22019G31KT 9999 BKN016 BKN024 11/09 A2943 RMK AO2 RAB00E18 CIG 016V025 SLP969 $ SW (220°) 21.9mph 35.7mph 11°C 9°C
8/12/19 02:44 EGUL 080244Z AUTO 21021G34KT 9999 SCT014 10/09 A2943 RMK AO2 RAE44 SLP969 $ SSW (210°) 24.2mph 39.1mph 10°C 9°C
8/12/19 02:06 EGUL 080206Z AUTO 20016G32KT 9999 -RA SCT013 10/09 A2946 RMK AO2 SLP980 $ -RA SSW (200°) 18.4mph 36.8mph 10°C 9°C
8/12/19 01:41 EGUL 080141Z AUTO 21019G30KT 9999 RA BKN015 OVC024 10/09 A2950 RMK AO2 RAE28RAB41 CIG 014 RWY06 SLP993 $ RA SSW (210°) 21.9mph 34.5mph 10°C 9°C
8/12/19 00:56 EGUL 080056Z AUTO 21018G27KT 9999 -RA BKN016 BKN090 11/08 A2952 RMK AO2 PK WND 22032/01 RAB52 SLP000 P0000 T01080078 $ -RA SSW (210°) 20.7mph 31.1mph 10.8°C 7.8°C
7/12/19 23:56 EGUL 072356Z AUTO 21017G27KT 9999 OVC015 10/08 A2958 RMK AO2 PK WND 21030/27 SLP020 T01030075 10103 20084 401030068 57045 $ SSW (210°) 19.6mph 31.1mph 10.3°C 7.5°C
7/12/19 23:21 EGUL 072321Z AUTO 21020G27KT 9999 OVC015 10/07 A2961 RMK AO2 PRESFR SLP030 $ SSW (210°) 23.0mph 31.1mph 10°C 7°C
7/12/19 22:31 EGUL 072231Z AUTO 22017KT 9999 OVC014 10/07 A2965 RMK AO2 SLP044 $ SW (220°) 19.6mph 10°C 7°C
7/12/19 21:56 EGUL 072156Z AUTO 21014G25KT 9999 OVC015 09/07 A2968 RMK AO2 SLP054 T00940065 $ SSW (210°) 16.1mph 28.8mph 9.4°C 6.5°C
7/12/19 20:56 EGUL 072056Z AUTO 21014KT 9999 OVC018 09/06 A2972 RMK AO2 SLP068 T00910058 57031 $ SSW (210°) 16.1mph 9.1°C 5.8°C
7/12/19 20:31 EGUL 072031Z AUTO 21015G19KT 9999 OVC019 09/06 A2974 RMK AO2 SLP075 $ SSW (210°) 17.3mph 21.9mph 9°C 6°C
7/12/19 19:56 EGUL 071956Z AUTO 22012G19KT 9999 M 09/06 A2976 RMK AO2 SLP081 T00890055 $ SW (220°) 13.8mph 21.9mph 8.9°C 5.5°C